createdAt,value
2019-05-02T00:01:13.563Z,12.81
2019-05-02T00:03:43.493Z,13.28
2019-05-02T00:06:13.643Z,13.37
2019-05-02T00:08:43.838Z,13.84
2019-05-02T00:11:14.149Z,14.74
2019-05-02T00:13:43.985Z,13.63
2019-05-02T00:16:15.324Z,14.28
2019-05-02T00:18:45.162Z,13.26
2019-05-02T00:21:15.142Z,13.29
2019-05-02T00:23:45.002Z,13.20
2019-05-02T00:26:14.906Z,13.25
2019-05-02T00:28:47.939Z,12.84
2019-05-02T00:31:17.694Z,12.76
2019-05-02T00:33:47.566Z,12.84
2019-05-02T00:36:17.546Z,12.76
2019-05-02T00:38:47.357Z,12.93
2019-05-02T00:41:17.426Z,12.81
2019-05-02T00:43:47.199Z,12.58
2019-05-02T00:46:17.290Z,12.45
2019-05-02T00:48:59.609Z,12.34
2019-05-02T00:51:28.131Z,12.72
2019-05-02T00:53:57.900Z,12.68
2019-05-02T00:56:27.656Z,12.83
2019-05-02T00:58:57.439Z,12.54
2019-05-02T01:01:46.305Z,12.31
2019-05-02T01:04:27.532Z,12.52
2019-05-02T01:06:56.210Z,12.28
2019-05-02T01:09:26.080Z,12.18
2019-05-02T01:11:56.099Z,12.09
2019-05-02T01:14:27.191Z,11.95
2019-05-02T01:16:57.575Z,11.98
2019-05-02T01:19:27.508Z,11.98
2019-05-02T01:21:57.379Z,12.04
2019-05-02T01:24:27.293Z,11.97
2019-05-02T01:27:12.397Z,12.02
2019-05-02T01:29:51.029Z,11.93
2019-05-02T01:32:33.463Z,11.90
2019-05-02T01:35:08.606Z,11.96
2019-05-02T01:37:56.124Z,11.97
2019-05-02T01:40:25.981Z,12.11
2019-05-02T01:42:57.668Z,12.02
2019-05-02T01:45:27.632Z,11.99
2019-05-02T01:47:57.301Z,12.04
2019-05-02T01:50:28.854Z,11.93
2019-05-02T01:53:00.187Z,11.85
2019-05-02T01:55:29.932Z,11.91
2019-05-02T01:57:59.747Z,11.85
2019-05-02T02:00:29.501Z,11.75
2019-05-02T02:02:59.373Z,11.73
2019-05-02T02:05:32.375Z,11.79
2019-05-02T02:08:00.847Z,11.73
2019-05-02T02:10:30.715Z,11.69
2019-05-02T02:13:04.618Z,11.73
2019-05-02T02:15:32.022Z,11.70
2019-05-02T02:18:02.086Z,11.69
2019-05-02T02:20:36.879Z,11.70
2019-05-02T02:23:25.311Z,11.67
2019-05-02T02:25:58.861Z,11.75
2019-05-02T02:28:32.002Z,11.75
2019-05-02T02:31:04.811Z,11.73
2019-05-02T02:33:31.650Z,11.69
2019-05-02T02:36:01.699Z,11.66
2019-05-02T02:38:33.650Z,11.63
2019-05-02T02:41:06.471Z,11.69
2019-05-02T02:43:35.150Z,11.71
2019-05-02T02:46:20.902Z,11.66
2019-05-02T02:48:50.898Z,11.70
2019-05-02T02:51:26.215Z,11.80
2019-05-02T02:54:03.158Z,11.87
2019-05-02T02:56:23.726Z,11.91
2019-05-02T02:58:53.450Z,11.84
2019-05-02T03:01:29.109Z,11.83
2019-05-02T03:03:55.048Z,11.86
2019-05-02T03:06:24.850Z,11.88
2019-05-02T03:08:54.843Z,11.93
2019-05-02T03:11:28.956Z,11.93
2019-05-02T03:14:17.820Z,11.91
2019-05-02T03:16:49.607Z,11.91
2019-05-02T03:19:21.157Z,11.80
2019-05-02T03:22:00.309Z,11.82
2019-05-02T03:24:27.546Z,11.78
2019-05-02T03:26:58.718Z,11.72
2019-05-02T03:29:39.116Z,11.62
2019-05-02T03:32:13.377Z,11.59
2019-05-02T03:34:47.488Z,11.62
2019-05-02T03:37:10.268Z,11.58
2019-05-02T03:39:37.608Z,11.55
2019-05-02T03:42:07.414Z,11.50
2019-05-02T03:44:36.898Z,11.50
2019-05-02T03:47:06.458Z,11.51
2019-05-02T03:49:40.888Z,11.54
2019-05-02T03:52:08.212Z,11.47
2019-05-02T03:54:48.377Z,11.46
2019-05-02T03:57:09.955Z,11.50
2019-05-02T03:59:41.856Z,11.52
2019-05-02T04:02:13.890Z,11.51
2019-05-02T04:04:44.728Z,11.50
2019-05-02T04:07:16.006Z,11.51
2019-05-02T04:09:45.807Z,11.54
2019-05-02T04:12:21.327Z,11.57
2019-05-02T04:14:48.336Z,11.57
2019-05-02T04:17:18.418Z,11.64
2019-05-02T04:19:48.350Z,11.70
2019-05-02T04:22:18.793Z,11.75
2019-05-02T04:24:54.530Z,11.77
2019-05-02T04:27:19.927Z,11.77
2019-05-02T04:29:49.715Z,11.91
2019-05-02T04:32:19.571Z,11.94
2019-05-02T04:34:55.745Z,12.10
2019-05-02T04:37:21.101Z,12.26
2019-05-02T04:39:53.684Z,12.39
2019-05-02T04:42:23.380Z,12.42
2019-05-02T04:45:14.241Z,12.58
2019-05-02T04:47:24.726Z,12.67
2019-05-02T04:49:57.971Z,12.83
2019-05-02T04:52:28.827Z,13.00
2019-05-02T04:55:08.112Z,13.19
2019-05-02T04:57:37.010Z,13.24
2019-05-02T05:00:06.165Z,13.28
2019-05-02T05:02:36.352Z,13.32
2019-05-02T05:05:05.040Z,13.49
2019-05-02T05:07:41.029Z,13.62
2019-05-02T05:10:08.390Z,13.64
2019-05-02T05:12:41.804Z,13.73
2019-05-02T05:15:15.222Z,13.56
2019-05-02T05:17:41.324Z,13.62
2019-05-02T05:20:15.507Z,13.55
2019-05-02T05:22:44.128Z,13.76
2019-05-02T05:25:21.320Z,13.79
2019-05-02T05:27:52.748Z,13.80
2019-05-02T05:30:21.248Z,13.58
2019-05-02T05:32:51.049Z,13.52
2019-05-02T05:35:20.863Z,13.56
2019-05-02T05:37:53.048Z,13.55
2019-05-02T05:40:27.559Z,13.60
2019-05-02T05:42:53.994Z,13.59
2019-05-02T05:45:23.770Z,13.66
2019-05-02T05:47:57.579Z,13.80
2019-05-02T05:50:24.986Z,13.94
2019-05-02T05:52:54.847Z,13.96
2019-05-02T05:55:24.718Z,14.01
2019-05-02T05:57:59.478Z,14.10
2019-05-02T06:00:27.830Z,13.91
2019-05-02T06:03:10.327Z,13.84
2019-05-02T06:05:33.104Z,13.84
2019-05-02T06:08:01.887Z,13.95
2019-05-02T06:10:31.700Z,13.82
2019-05-02T06:13:05.357Z,13.81
2019-05-02T06:15:33.879Z,13.71
2019-05-02T06:18:06.066Z,13.75
2019-05-02T06:20:36.163Z,14.03
2019-05-02T06:23:06.021Z,13.94
2019-05-02T06:25:36.707Z,14.17
2019-05-02T06:28:06.977Z,14.20
2019-05-02T06:30:36.699Z,14.24
2019-05-02T06:33:06.606Z,14.41
2019-05-02T06:35:36.399Z,14.51
2019-05-02T06:38:06.108Z,14.56
2019-05-02T06:40:39.277Z,14.73
2019-05-02T06:43:09.695Z,14.69
2019-05-02T06:45:41.421Z,14.66
2019-05-02T06:48:17.176Z,14.78
2019-05-02T06:50:43.067Z,15.05
2019-05-02T06:53:14.337Z,15.28
2019-05-02T06:55:44.131Z,15.51
2019-05-02T06:58:13.924Z,16.10
2019-05-02T07:00:56.786Z,16.27
2019-05-02T07:03:16.627Z,16.15
2019-05-02T07:05:49.060Z,16.00
2019-05-02T07:08:18.169Z,16.11
2019-05-02T07:10:47.658Z,16.09
2019-05-02T07:13:17.321Z,16.32
2019-05-02T07:15:54.609Z,16.48
2019-05-02T07:18:24.824Z,16.74
2019-05-02T07:20:54.795Z,16.60
2019-05-02T07:23:24.653Z,16.64
2019-05-02T07:25:54.394Z,16.50
2019-05-02T07:28:24.472Z,16.29
2019-05-02T07:30:54.735Z,16.68
2019-05-02T07:33:24.748Z,16.82
2019-05-02T07:35:55.250Z,16.87
2019-05-02T07:38:27.583Z,16.32
2019-05-02T07:40:58.707Z,16.27
2019-05-02T07:43:29.731Z,16.44
2019-05-02T07:45:59.667Z,16.67
2019-05-02T07:48:30.776Z,16.29
2019-05-02T07:51:00.701Z,16.91
2019-05-02T07:53:31.052Z,16.90
2019-05-02T07:56:02.089Z,16.94
2019-05-02T07:58:31.800Z,16.75
2019-05-02T08:01:01.522Z,16.70
2019-05-02T08:03:33.622Z,16.83
2019-05-02T08:06:04.125Z,17.03
2019-05-02T08:08:36.347Z,17.55
2019-05-02T08:11:06.965Z,17.18
2019-05-02T08:13:36.821Z,17.08
2019-05-02T08:16:06.757Z,17.35
2019-05-02T08:18:36.598Z,17.10
2019-05-02T08:21:06.261Z,17.11
2019-05-02T08:23:36.200Z,17.62
2019-05-02T08:26:06.669Z,17.16
2019-05-02T08:28:52.004Z,17.19
2019-05-02T08:31:20.988Z,16.91
2019-05-02T08:33:51.027Z,17.04
2019-05-02T08:36:21.085Z,17.12
2019-05-02T08:38:53.679Z,17.42
2019-05-02T08:41:22.395Z,17.79
2019-05-02T08:43:52.215Z,17.57
2019-05-02T08:46:22.065Z,17.15
2019-05-02T08:48:51.903Z,17.11
2019-05-02T08:51:21.844Z,17.44
2019-05-02T08:53:56.442Z,17.21
2019-05-02T08:56:23.246Z,17.11
2019-05-02T08:58:54.424Z,17.03
2019-05-02T09:01:34.554Z,17.11
2019-05-02T09:03:57.026Z,17.19
2019-05-02T09:06:27.074Z,17.44
2019-05-02T09:08:56.931Z,17.36
2019-05-02T09:11:26.728Z,17.24
2019-05-02T09:13:56.894Z,17.25
2019-05-02T09:16:28.786Z,17.80
2019-05-02T09:18:58.116Z,17.49
2019-05-02T09:21:34.253Z,17.73
2019-05-02T09:24:02.492Z,18.19
2019-05-02T09:26:37.954Z,18.37
2019-05-02T09:29:05.391Z,17.99
2019-05-02T09:31:36.686Z,17.64
2019-05-02T09:34:06.834Z,17.26
2019-05-02T09:36:38.247Z,17.24
2019-05-02T09:39:08.619Z,17.27
2019-05-02T09:41:38.374Z,17.57
2019-05-02T09:44:09.067Z,18.36
2019-05-02T09:46:39.587Z,18.35
2019-05-02T09:49:15.753Z,18.23
2019-05-02T09:51:42.020Z,17.66
2019-05-02T09:54:12.490Z,17.78
2019-05-02T09:56:43.090Z,18.01
2019-05-02T09:59:26.279Z,17.89
2019-05-02T10:01:45.756Z,18.13
2019-05-02T10:04:17.016Z,18.52
2019-05-02T10:06:47.098Z,17.99
2019-05-02T10:09:18.626Z,18.40
2019-05-02T10:11:48.465Z,18.48
2019-05-02T10:14:18.121Z,18.39
2019-05-02T10:16:47.919Z,18.00
2019-05-02T10:19:19.023Z,18.08
2019-05-02T10:21:52.476Z,17.96
2019-05-02T10:24:22.237Z,18.16
2019-05-02T10:26:55.183Z,18.25
2019-05-02T10:29:28.472Z,18.11
2019-05-02T10:31:55.110Z,18.56
2019-05-02T10:34:24.831Z,18.61
2019-05-02T10:36:59.029Z,18.01
2019-05-02T10:39:28.391Z,18.14
2019-05-02T10:41:59.247Z,18.11
2019-05-02T10:44:32.787Z,17.85
2019-05-02T10:47:00.353Z,18.21
2019-05-02T10:49:56.476Z,18.22
2019-05-02T10:52:29.715Z,18.88
2019-05-02T10:54:57.650Z,18.58
2019-05-02T10:57:27.518Z,18.62
2019-05-02T10:59:57.610Z,18.41
2019-05-02T11:02:46.092Z,18.37
2019-05-02T11:05:22.574Z,18.93
2019-05-02T11:07:52.174Z,19.15
2019-05-02T11:10:21.974Z,19.15
2019-05-02T11:13:12.431Z,19.38
2019-05-02T11:15:58.457Z,19.42
2019-05-02T11:18:40.299Z,19.55
2019-05-02T11:21:04.454Z,19.36
2019-05-02T11:23:34.164Z,19.97
2019-05-02T11:26:04.005Z,20.21
2019-05-02T11:28:33.666Z,19.72
2019-05-02T11:31:06.864Z,19.34
2019-05-02T11:33:34.889Z,19.98
2019-05-02T11:36:06.319Z,20.16
2019-05-02T11:38:36.441Z,20.16
2019-05-02T11:41:07.000Z,20.35
2019-05-02T11:43:41.380Z,20.33
2019-05-02T11:46:12.050Z,20.26
2019-05-02T11:48:54.755Z,20.27
2019-05-02T11:51:16.452Z,19.91
2019-05-02T11:53:44.833Z,20.26
2019-05-02T11:56:14.707Z,20.81
2019-05-02T11:58:48.199Z,20.81
2019-05-02T12:01:20.239Z,20.55
2019-05-02T12:03:52.437Z,20.88
2019-05-02T12:06:23.686Z,20.90
2019-05-02T12:08:53.390Z,21.88
2019-05-02T12:11:23.527Z,22.29
2019-05-02T12:13:57.005Z,21.80
2019-05-02T12:16:26.634Z,21.40
2019-05-02T12:19:08.660Z,21.15
2019-05-02T12:21:28.717Z,20.59
2019-05-02T12:23:58.490Z,20.97
2019-05-02T12:26:28.346Z,21.47
2019-05-02T12:28:59.635Z,21.13
2019-05-02T12:31:32.623Z,20.88
2019-05-02T12:34:06.382Z,21.78
2019-05-02T12:36:36.302Z,21.02
2019-05-02T12:39:07.052Z,20.35
2019-05-02T12:41:36.888Z,20.80
2019-05-02T12:44:06.865Z,20.32
2019-05-02T12:46:36.679Z,19.76
2019-05-02T12:49:07.755Z,19.69
2019-05-02T12:51:37.542Z,19.49
2019-05-02T12:54:07.370Z,19.13
2019-05-02T12:56:37.325Z,19.13
2019-05-02T12:59:07.206Z,19.20
2019-05-02T13:01:37.225Z,20.99
2019-05-02T13:04:12.548Z,20.99
2019-05-02T13:06:42.573Z,22.01
2019-05-02T13:09:13.033Z,20.73
2019-05-02T13:12:02.840Z,19.57
2019-05-02T13:14:33.071Z,18.71
2019-05-02T13:17:05.669Z,17.88
2019-05-02T13:19:40.194Z,18.05
2019-05-02T13:22:23.631Z,17.88
2019-05-02T13:24:56.479Z,18.12
2019-05-02T13:27:26.248Z,19.33
2019-05-02T13:29:56.322Z,20.08
2019-05-02T13:32:47.968Z,21.18
2019-05-02T13:35:34.215Z,22.68
2019-05-02T13:38:05.282Z,25.96
2019-05-02T13:40:41.827Z,26.61
2019-05-02T13:43:12.567Z,26.85
2019-05-02T13:46:08.283Z,27.97
2019-05-02T13:48:39.561Z,27.82
2019-05-02T13:51:11.761Z,27.36
2019-05-02T13:54:09.075Z,27.30
2019-05-02T13:56:53.162Z,26.58
2019-05-02T13:59:23.349Z,26.07
2019-05-02T14:01:54.572Z,24.54
2019-05-02T14:04:24.651Z,23.95
2019-05-02T14:06:54.522Z,23.91
2019-05-02T14:09:58.705Z,24.94
2019-05-02T14:12:42.866Z,26.41
2019-05-02T14:15:13.930Z,23.63
2019-05-02T14:17:43.743Z,23.44
2019-05-02T14:20:14.053Z,23.21
2019-05-02T14:22:43.833Z,23.41
2019-05-02T14:25:14.711Z,24.44
2019-05-02T14:27:46.964Z,25.46
2019-05-02T14:30:18.632Z,26.04
2019-05-02T14:32:48.473Z,27.95
2019-05-02T14:35:28.112Z,26.89
2019-05-02T14:38:09.496Z,28.12
2019-05-02T14:40:54.370Z,27.98
2019-05-02T14:43:46.221Z,27.83
2019-05-02T14:46:13.869Z,27.25
2019-05-02T14:48:45.313Z,27.51
2019-05-02T14:51:21.622Z,27.52
2019-05-02T14:53:48.174Z,28.26
2019-05-02T14:56:37.495Z,27.65
2019-05-02T14:59:13.723Z,27.78
2019-05-02T15:01:42.485Z,28.04
2019-05-02T15:04:12.921Z,28.22
2019-05-02T15:06:47.125Z,27.76
2019-05-02T15:09:16.634Z,27.24
2019-05-02T15:11:58.742Z,27.31
2019-05-02T15:14:33.487Z,26.80
2019-05-02T15:17:03.702Z,27.25
2019-05-02T15:19:33.768Z,27.08
2019-05-02T15:22:03.952Z,27.98
2019-05-02T15:24:37.615Z,27.36
2019-05-02T15:27:11.813Z,26.75
2019-05-02T15:29:38.478Z,24.30
2019-05-02T15:32:37.250Z,24.94
2019-05-02T15:35:25.107Z,25.94
2019-05-02T15:37:56.748Z,26.05
2019-05-02T15:43:02.865Z,25.69
2019-05-02T15:45:28.537Z,25.34
2019-05-02T15:47:58.370Z,24.91
2019-05-02T15:50:29.278Z,23.97
2019-05-02T15:53:24.106Z,23.36
2019-05-02T15:55:53.967Z,23.32
2019-05-02T15:58:27.919Z,24.53
2019-05-02T16:01:08.165Z,26.16
2019-05-02T16:03:46.536Z,25.26
2019-05-02T16:06:21.076Z,24.76
2019-05-02T16:08:48.129Z,24.17
2019-05-02T16:11:18.525Z,24.15
2019-05-02T16:13:52.715Z,23.67
2019-05-02T16:16:22.933Z,23.32
2019-05-02T16:18:53.065Z,22.44
2019-05-02T16:21:42.975Z,21.74
2019-05-02T16:24:23.298Z,21.64
2019-05-02T16:26:57.065Z,21.26
2019-05-02T16:29:28.892Z,20.93
2019-05-02T16:32:10.112Z,21.15
2019-05-02T16:35:12.291Z,21.09
2019-05-02T16:37:36.364Z,21.70
2019-05-02T16:40:08.602Z,21.22
2019-05-02T16:42:38.633Z,20.82
2019-05-02T16:45:12.430Z,19.23
2019-05-02T16:47:42.433Z,19.23
2019-05-02T16:50:12.647Z,18.34
2019-05-02T16:52:47.213Z,18.30
2019-05-02T16:55:21.006Z,18.24
2019-05-02T16:57:48.991Z,17.90
2019-05-02T17:00:22.676Z,17.53
2019-05-02T17:02:52.512Z,17.36
2019-05-02T17:05:23.776Z,17.43
2019-05-02T17:08:27.842Z,17.12
2019-05-02T17:11:15.375Z,16.93
2019-05-02T17:13:42.320Z,16.75
2019-05-02T17:16:16.986Z,16.64
2019-05-02T17:18:48.350Z,16.62
2019-05-02T17:21:15.162Z,16.59
2019-05-02T17:23:47.490Z,16.43
2019-05-02T17:26:16.522Z,16.33
2019-05-02T17:28:47.195Z,16.17
2019-05-02T17:31:20.550Z,15.98
2019-05-02T17:33:51.136Z,15.83
2019-05-02T17:36:21.572Z,15.63
2019-05-02T17:38:54.396Z,15.65
2019-05-02T17:41:23.803Z,15.81
2019-05-02T17:43:56.616Z,15.74
2019-05-02T17:46:25.979Z,15.76
2019-05-02T17:48:57.170Z,15.79
2019-05-02T17:51:48.665Z,15.74
2019-05-02T17:54:22.822Z,15.74
2019-05-02T17:56:52.269Z,15.65
2019-05-02T17:59:21.609Z,15.60
2019-05-02T18:01:52.461Z,15.55
2019-05-02T18:04:22.282Z,15.42
2019-05-02T18:06:54.994Z,15.28
2019-05-02T18:09:26.308Z,15.13
2019-05-02T18:11:55.504Z,15.05
2019-05-02T18:14:25.284Z,15.07
2019-05-02T18:16:55.726Z,15.12
2019-05-02T18:19:25.647Z,15.22
2019-05-02T18:21:58.300Z,15.30
2019-05-02T18:24:27.640Z,15.28
2019-05-02T18:26:57.367Z,15.21
2019-05-02T18:29:27.212Z,15.20
2019-05-02T18:31:57.076Z,15.20
2019-05-02T18:34:26.993Z,15.28
2019-05-02T18:36:57.568Z,15.24
2019-05-02T18:39:28.562Z,15.14
2019-05-02T18:41:58.266Z,15.24
2019-05-02T18:44:29.462Z,15.25
2019-05-02T18:46:59.221Z,15.31
2019-05-02T18:49:32.141Z,15.27
2019-05-02T18:52:02.231Z,15.32
2019-05-02T18:54:33.790Z,15.33
2019-05-02T18:57:03.888Z,15.25
2019-05-02T18:59:35.008Z,15.20
2019-05-02T19:02:04.778Z,15.11
2019-05-02T19:04:38.103Z,14.99
2019-05-02T19:07:07.436Z,14.85
2019-05-02T19:09:48.397Z,14.76
2019-05-02T19:12:19.480Z,14.69
2019-05-02T19:14:42.861Z,14.60
2019-05-02T19:17:12.996Z,14.71
2019-05-02T19:19:43.079Z,14.51
2019-05-02T19:22:16.801Z,14.43
2019-05-02T19:24:45.496Z,14.32
2019-05-02T19:27:20.989Z,14.30
2019-05-02T19:29:49.518Z,14.22
2019-05-02T19:32:25.489Z,14.18
2019-05-02T19:34:53.132Z,14.15
2019-05-02T19:37:22.949Z,14.06
2019-05-02T19:39:53.090Z,14.02
2019-05-02T19:42:26.211Z,14.02
2019-05-02T19:44:54.669Z,13.99
2019-05-02T19:47:24.737Z,13.94
2019-05-02T19:49:54.710Z,14.00
2019-05-02T19:52:28.621Z,13.97
2019-05-02T19:54:59.050Z,13.98
2019-05-02T19:57:28.956Z,14.19
2019-05-02T20:00:02.827Z,14.13
2019-05-02T20:02:30.223Z,14.06
2019-05-02T20:05:02.695Z,13.97
2019-05-02T20:07:32.168Z,13.96
2019-05-02T20:10:02.004Z,13.92
2019-05-02T20:12:33.316Z,13.97
2019-05-02T20:15:03.091Z,14.06
2019-05-02T20:17:32.917Z,14.08
2019-05-02T20:20:07.217Z,14.06
2019-05-02T20:22:40.968Z,14.02
2019-05-02T20:25:12.388Z,14.18
2019-05-02T20:27:42.146Z,14.25
2019-05-02T20:30:12.369Z,14.24
2019-05-02T20:32:44.620Z,14.28
2019-05-02T20:35:14.800Z,14.16
2019-05-02T20:37:44.625Z,14.19
2019-05-02T20:40:31.668Z,14.33
2019-05-02T20:43:02.520Z,14.10
2019-05-02T20:45:32.521Z,14.16
2019-05-02T20:48:02.421Z,14.16
2019-05-02T20:50:32.344Z,14.13
2019-05-02T20:53:02.264Z,14.04
2019-05-02T20:55:33.343Z,13.98
2019-05-02T20:58:03.051Z,13.90
2019-05-02T21:00:33.626Z,13.88
2019-05-02T21:03:03.545Z,13.83
2019-05-02T21:05:40.181Z,13.80
2019-05-02T21:08:22.403Z,13.81
2019-05-02T21:10:52.630Z,13.94
2019-05-02T21:13:22.595Z,14.03
2019-05-02T21:15:52.559Z,13.94
2019-05-02T21:18:23.637Z,13.91
2019-05-02T21:20:53.551Z,13.88
2019-05-02T21:23:23.364Z,13.85
2019-05-02T21:25:53.236Z,13.83
2019-05-02T21:28:22.894Z,13.87
2019-05-02T21:30:52.831Z,13.82
2019-05-02T21:33:35.812Z,13.86
2019-05-02T21:36:06.266Z,13.92
2019-05-02T21:38:37.269Z,14.10
2019-05-02T21:41:10.807Z,14.14
2019-05-02T21:43:42.511Z,14.21
2019-05-02T21:46:12.387Z,14.25
2019-05-02T21:48:42.244Z,14.24
2019-05-02T21:51:31.984Z,14.34
2019-05-02T21:54:15.130Z,14.37
2019-05-02T21:56:54.480Z,14.36
2019-05-02T21:59:24.382Z,14.23
2019-05-02T22:01:55.477Z,14.20
2019-05-02T22:04:25.258Z,14.03
2019-05-02T22:06:55.258Z,13.52
2019-05-02T22:09:25.059Z,13.14
2019-05-02T22:11:54.982Z,13.28
2019-05-02T22:14:24.913Z,13.58
2019-05-02T22:16:54.812Z,13.73
2019-05-02T22:19:24.772Z,13.74
2019-05-02T22:21:54.527Z,13.72
2019-05-02T22:24:24.460Z,13.71
2019-05-02T22:26:54.444Z,13.68
2019-05-02T22:29:24.304Z,13.61
2019-05-02T22:31:54.471Z,13.59
2019-05-02T22:34:24.463Z,13.55
2019-05-02T22:36:54.443Z,13.56
2019-05-02T22:39:42.208Z,13.50
2019-05-02T22:42:13.154Z,13.38
2019-05-02T22:44:43.029Z,13.41
2019-05-02T22:47:14.092Z,13.45
2019-05-02T22:49:44.124Z,13.51
2019-05-02T22:52:14.539Z,13.47
2019-05-02T22:54:44.238Z,13.41
2019-05-02T22:57:14.467Z,13.43
2019-05-02T22:59:44.323Z,13.38
2019-05-02T23:02:14.175Z,13.28
2019-05-02T23:04:44.125Z,13.09
2019-05-02T23:07:14.159Z,12.93
2019-05-02T23:09:43.941Z,12.98
2019-05-02T23:12:13.908Z,12.91
2019-05-02T23:14:43.675Z,12.91
2019-05-02T23:17:13.727Z,12.93
2019-05-02T23:19:43.498Z,12.90
2019-05-02T23:22:13.115Z,12.97
2019-05-02T23:25:02.886Z,12.90
2019-05-02T23:27:39.188Z,12.85
2019-05-02T23:30:14.153Z,12.82
2019-05-02T23:32:44.038Z,12.82
2019-05-02T23:35:13.951Z,12.77
2019-05-02T23:37:43.771Z,12.79
2019-05-02T23:40:14.275Z,12.82
2019-05-02T23:42:44.049Z,12.81
2019-05-02T23:45:14.222Z,12.82
2019-05-02T23:47:44.203Z,12.83
2019-05-02T23:50:14.456Z,12.83
2019-05-02T23:52:44.273Z,12.85
2019-05-02T23:55:14.242Z,12.87
2019-05-02T23:57:44.015Z,12.89
